createdAt,value
2018-12-10T00:01:20.909Z,98300.80
2018-12-10T00:03:51.830Z,98296.73
2018-12-10T00:06:22.750Z,98282.43
2018-12-10T00:08:53.620Z,98293.72
2018-12-10T00:11:24.426Z,98281.56
2018-12-10T00:13:55.078Z,98288.53
2018-12-10T00:16:25.917Z,98286.05
2018-12-10T00:18:57.005Z,98292.05
2018-12-10T00:21:28.525Z,98293.06
2018-12-10T00:23:59.396Z,98292.57
2018-12-10T00:26:30.222Z,98298.53
2018-12-10T00:29:01.030Z,98296.80
2018-12-10T00:31:31.828Z,98302.80
2018-12-10T00:34:02.783Z,98297.23
2018-12-10T00:36:33.518Z,98312.61
2018-12-10T00:39:05.264Z,98317.84
2018-12-10T00:41:36.132Z,98314.49
2018-12-10T00:44:06.901Z,98315.15
2018-12-10T00:46:37.692Z,98313.23
2018-12-10T00:49:08.392Z,98305.86
2018-12-10T00:51:39.283Z,98320.57
2018-12-10T00:54:10.141Z,98316.77
2018-12-10T00:56:41.051Z,98319.06
2018-12-10T00:59:12.010Z,98329.21
2018-12-10T01:01:43.184Z,98335.62
2018-12-10T01:04:14.124Z,98333.06
2018-12-10T01:06:44.616Z,98345.05
2018-12-10T01:09:15.445Z,98335.48
2018-12-10T01:11:46.283Z,98328.74
2018-12-10T01:14:17.266Z,98330.05
2018-12-10T01:16:48.118Z,98343.65
2018-12-10T01:19:18.796Z,98348.17
2018-12-10T01:21:49.669Z,98353.00
2018-12-10T01:24:20.576Z,98353.53
2018-12-10T01:26:51.334Z,98346.77
2018-12-10T01:29:22.127Z,98362.37
2018-12-10T01:31:52.945Z,98358.50
2018-12-10T01:34:23.795Z,98354.64
2018-12-10T01:36:54.408Z,98365.66
2018-12-10T01:39:25.218Z,98365.33
2018-12-10T01:41:56.136Z,98360.70
2018-12-10T01:44:26.917Z,98356.81
2018-12-10T01:46:57.796Z,98360.92
2018-12-10T01:49:28.719Z,98368.00
2018-12-10T01:51:59.526Z,98369.64
2018-12-10T01:54:30.375Z,98375.17
2018-12-10T01:57:01.117Z,98376.37
2018-12-10T01:59:31.930Z,98381.50
2018-12-10T02:02:02.654Z,98394.39
2018-12-10T02:04:33.577Z,98400.41
2018-12-10T02:07:04.513Z,98393.28
2018-12-10T02:09:35.259Z,98393.09
2018-12-10T02:12:05.971Z,98392.05
2018-12-10T02:14:36.798Z,98389.19
2018-12-10T02:17:07.581Z,98394.55
2018-12-10T02:19:38.915Z,98400.80
2018-12-10T02:22:10.357Z,98400.78
2018-12-10T02:24:42.128Z,98397.98
2018-12-10T02:27:13.326Z,98400.14
2018-12-10T02:29:44.321Z,98397.34
2018-12-10T02:32:15.293Z,98399.91
2018-12-10T02:34:45.885Z,98414.07
2018-12-10T02:37:16.673Z,98408.44
2018-12-10T02:39:47.672Z,98409.30
2018-12-10T02:42:18.350Z,98411.97
2018-12-10T02:44:48.987Z,98422.52
2018-12-10T02:47:20.540Z,98413.49
2018-12-10T02:49:51.329Z,98406.97
2018-12-10T02:52:22.052Z,98400.87
2018-12-10T02:54:52.937Z,98404.06
2018-12-10T02:57:23.766Z,98402.98
2018-12-10T02:59:54.647Z,98404.82
2018-12-10T03:02:25.478Z,98408.47
2018-12-10T03:04:56.300Z,98406.96
2018-12-10T03:07:27.290Z,98414.23
2018-12-10T03:09:58.023Z,98407.41
2018-12-10T03:12:28.899Z,98409.35
2018-12-10T03:14:59.573Z,98409.38
2018-12-10T03:17:30.222Z,98411.39
2018-12-10T03:20:01.196Z,98415.05
2018-12-10T03:22:32.001Z,98408.52
2018-12-10T03:25:02.775Z,98413.58
2018-12-10T03:27:33.555Z,98415.08
2018-12-10T03:30:04.362Z,98414.91
2018-12-10T03:32:35.297Z,98411.42
2018-12-10T03:35:06.256Z,98413.16
2018-12-10T03:37:37.312Z,98415.95
2018-12-10T03:40:08.579Z,98414.10
2018-12-10T03:42:39.406Z,98404.38
2018-12-10T03:45:10.676Z,98403.36
2018-12-10T03:47:41.333Z,98390.51
2018-12-10T03:50:12.293Z,98385.91
2018-12-10T03:52:43.159Z,98384.58
2018-12-10T03:55:13.874Z,98382.78
2018-12-10T03:57:44.467Z,98378.44
2018-12-10T04:00:15.353Z,98385.36
2018-12-10T04:02:46.210Z,98381.73
2018-12-10T04:05:16.838Z,98382.17
2018-12-10T04:07:47.747Z,98391.69
2018-12-10T04:10:18.470Z,98397.83
2018-12-10T04:12:49.279Z,98400.06
2018-12-10T04:15:20.374Z,98393.94
2018-12-10T04:17:51.142Z,98403.83
2018-12-10T04:20:22.797Z,98412.38
2018-12-10T04:22:53.619Z,98416.20
2018-12-10T04:25:24.467Z,98419.35
2018-12-10T04:27:55.202Z,98425.92
2018-12-10T04:30:26.312Z,98435.27
2018-12-10T04:32:57.112Z,98430.91
2018-12-10T04:35:27.929Z,98430.37
2018-12-10T04:37:58.767Z,98429.09
2018-12-10T04:40:29.868Z,98435.79
2018-12-10T04:43:00.666Z,98437.41
2018-12-10T04:45:31.517Z,98441.47
2018-12-10T04:48:02.156Z,98445.47
2018-12-10T04:50:33.069Z,98452.70
2018-12-10T04:53:04.973Z,98447.91
2018-12-10T04:55:35.700Z,98450.43
2018-12-10T04:58:06.409Z,98446.90
2018-12-10T05:00:37.376Z,98456.29
2018-12-10T05:03:08.614Z,98451.02
2018-12-10T05:05:39.377Z,98451.28
2018-12-10T05:08:10.388Z,98453.19
2018-12-10T05:10:41.392Z,98452.25
2018-12-10T05:13:12.263Z,98455.14
2018-12-10T05:15:43.154Z,98463.42
2018-12-10T05:18:14.126Z,98475.58
2018-12-10T05:20:45.108Z,98475.21
2018-12-10T05:23:16.720Z,98475.65
2018-12-10T05:25:47.671Z,98481.96
2018-12-10T05:28:18.908Z,98491.81
2018-12-10T05:30:49.807Z,98485.82
2018-12-10T05:33:20.873Z,98489.00
2018-12-10T05:35:51.788Z,98500.65
2018-12-10T05:38:22.705Z,98501.56
2018-12-10T05:40:53.563Z,98499.64
2018-12-10T05:43:24.422Z,98494.80
2018-12-10T05:45:55.642Z,98499.39
2018-12-10T05:48:26.621Z,98486.06
2018-12-10T05:50:57.210Z,98498.02
2018-12-10T05:53:28.114Z,98495.38
2018-12-10T05:55:58.749Z,98507.37
2018-12-10T05:58:29.792Z,98504.02
2018-12-10T06:01:00.677Z,98509.02
2018-12-10T06:03:31.363Z,98517.04
2018-12-10T06:06:02.172Z,98525.58
2018-12-10T06:08:34.029Z,98520.45
2018-12-10T06:11:05.521Z,98532.03
2018-12-10T06:13:36.592Z,98533.77
2018-12-10T06:16:07.262Z,98536.44
2018-12-10T06:18:37.912Z,98537.23
2018-12-10T06:21:08.478Z,98541.08
2018-12-10T06:23:39.500Z,98542.03
2018-12-10T06:26:10.559Z,98540.48
2018-12-10T06:28:41.446Z,98535.03
2018-12-10T06:31:12.421Z,98529.56
2018-12-10T06:33:43.362Z,98528.17
2018-12-10T06:36:14.422Z,98530.95
2018-12-10T06:38:45.639Z,98531.64
2018-12-10T06:41:16.595Z,98537.62
2018-12-10T06:43:48.496Z,98534.45
2018-12-10T06:46:20.061Z,98532.41
2018-12-10T06:48:52.706Z,98540.23
2018-12-10T06:51:23.873Z,98547.52
2018-12-10T06:53:55.375Z,98550.66
2018-12-10T06:56:27.023Z,98553.47
2018-12-10T06:58:57.799Z,98549.78
2018-12-10T07:01:28.979Z,98545.73
2018-12-10T07:04:00.259Z,98544.13
2018-12-10T07:06:31.669Z,98536.14
2018-12-10T07:09:02.638Z,98531.75
2018-12-10T07:11:33.593Z,98519.42
2018-12-10T07:14:04.495Z,98524.43
2018-12-10T07:16:35.985Z,98532.41
2018-12-10T07:19:06.853Z,98535.45
2018-12-10T07:21:37.761Z,98543.47
2018-12-10T07:24:08.727Z,98541.08
2018-12-10T07:26:39.923Z,98541.72
2018-12-10T07:29:11.252Z,98537.11
2018-12-10T07:31:43.237Z,98541.91
2018-12-10T07:34:14.397Z,98535.18
2018-12-10T07:36:45.428Z,98545.67
2018-12-10T07:39:17.179Z,98545.70
2018-12-10T07:41:48.532Z,98550.18
2018-12-10T07:44:20.292Z,98557.57
2018-12-10T07:46:51.519Z,98562.58
2018-12-10T07:49:22.342Z,98559.92
2018-12-10T07:51:53.217Z,98555.82
2018-12-10T07:54:24.109Z,98559.27
2018-12-10T07:56:55.219Z,98563.12
2018-12-10T07:59:26.039Z,98554.28
2018-12-10T08:01:57.137Z,98562.72
2018-12-10T08:04:28.064Z,98560.50
2018-12-10T08:06:59.137Z,98573.67
2018-12-10T08:09:30.334Z,98579.41
2018-12-10T08:12:01.922Z,98586.87
2018-12-10T08:14:32.701Z,98581.38
2018-12-10T08:17:03.792Z,98589.16
2018-12-10T08:19:34.884Z,98587.29
2018-12-10T08:22:06.639Z,98588.28
2018-12-10T08:24:38.266Z,98598.27
2018-12-10T08:27:09.722Z,98605.38
2018-12-10T08:29:41.013Z,98603.28
2018-12-10T08:32:12.306Z,98604.00
2018-12-10T08:34:43.698Z,98609.16
2018-12-10T08:37:14.958Z,98607.96
2018-12-10T08:39:45.766Z,98603.48
2018-12-10T08:42:16.778Z,98610.73
2018-12-10T08:44:48.356Z,98607.47
2018-12-10T08:47:19.330Z,98611.17
2018-12-10T08:49:50.896Z,98610.75
2018-12-10T08:52:21.874Z,98616.91
2018-12-10T08:54:52.594Z,98613.31
2018-12-10T08:57:24.517Z,98616.18
2018-12-10T08:59:55.423Z,98628.39
2018-12-10T09:02:26.765Z,98621.05
2018-12-10T09:04:58.113Z,98625.11
2018-12-10T09:07:29.099Z,98639.70
2018-12-10T09:10:00.109Z,98631.58
2018-12-10T09:12:31.708Z,98629.60
2018-12-10T09:15:03.334Z,98631.73
2018-12-10T09:17:35.182Z,98633.52
2018-12-10T09:20:06.651Z,98636.56
2018-12-10T09:22:37.586Z,98648.55
2018-12-10T09:25:09.238Z,98647.20
2018-12-10T09:27:40.023Z,98647.83
2018-12-10T09:30:14.582Z,98651.87
2018-12-10T09:32:45.383Z,98652.87
2018-12-10T09:35:16.444Z,98650.02
2018-12-10T09:37:48.108Z,98643.58
2018-12-10T09:40:19.072Z,98643.50
2018-12-10T09:42:50.334Z,98648.53
2018-12-10T09:45:21.783Z,98649.20
2018-12-10T09:47:53.821Z,98644.92
2018-12-10T09:50:25.607Z,98645.06
2018-12-10T09:52:57.392Z,98638.81
2018-12-10T09:55:28.313Z,98642.30
2018-12-10T09:58:00.616Z,98635.11
2018-12-10T10:00:31.637Z,98636.27
2018-12-10T10:03:02.875Z,98635.77
2018-12-10T10:05:33.942Z,98635.83
2018-12-10T10:08:05.017Z,98630.39
2018-12-10T10:10:35.968Z,98627.94
2018-12-10T10:13:07.007Z,98629.94
2018-12-10T10:15:37.859Z,98634.56
2018-12-10T10:18:08.867Z,98632.40
2018-12-10T10:20:39.788Z,98630.52
2018-12-10T10:23:10.608Z,98629.30
2018-12-10T10:25:41.766Z,98623.94
2018-12-10T10:28:12.660Z,98624.38
2018-12-10T10:30:44.202Z,98623.16
2018-12-10T10:33:15.184Z,98627.67
2018-12-10T10:35:45.958Z,98620.87
2018-12-10T10:38:16.720Z,98624.07
2018-12-10T10:40:47.835Z,98624.55
2018-12-10T10:43:18.810Z,98614.41
2018-12-10T10:45:49.605Z,98617.19
2018-12-10T10:48:20.537Z,98611.78
2018-12-10T10:50:51.411Z,98614.11
2018-12-10T10:53:22.356Z,98606.48
2018-12-10T10:55:53.886Z,98611.00
2018-12-10T10:58:24.893Z,98609.74
2018-12-10T11:01:00.787Z,98608.84
2018-12-10T11:03:37.525Z,98596.99
2018-12-10T11:06:10.339Z,98595.19
2018-12-10T11:08:41.577Z,98596.02
2018-12-10T11:11:13.463Z,98603.80
2018-12-10T11:13:44.756Z,98600.74
2018-12-10T11:16:15.662Z,98605.97
2018-12-10T11:18:46.731Z,98595.70
2018-12-10T11:21:19.147Z,98595.41
2018-12-10T11:23:50.432Z,98587.84
2018-12-10T11:26:21.986Z,98589.73
2018-12-10T11:28:53.225Z,98588.20
2018-12-10T11:31:25.357Z,98579.02
2018-12-10T11:33:56.630Z,98584.53
2018-12-10T11:36:28.007Z,98582.80
2018-12-10T11:38:58.853Z,98575.33
2018-12-10T11:41:29.910Z,98576.98
2018-12-10T11:44:00.770Z,98578.97
2018-12-10T11:46:31.694Z,98578.47
2018-12-10T11:49:02.646Z,98581.72
2018-12-10T11:51:33.662Z,98576.89
2018-12-10T11:54:05.131Z,98585.98
2018-12-10T11:56:36.117Z,98574.00
2018-12-10T11:59:08.353Z,98581.05
2018-12-10T12:01:39.745Z,98580.88
2018-12-10T12:04:10.561Z,98576.06
2018-12-10T12:06:41.587Z,98575.34
2018-12-10T12:09:12.825Z,98581.81
2018-12-10T12:11:43.651Z,98578.92
2018-12-10T12:14:14.615Z,98571.31
2018-12-10T12:16:45.665Z,98571.59
2018-12-10T12:19:16.529Z,98577.46
2018-12-10T12:21:47.380Z,98572.29
2018-12-10T12:24:18.447Z,98574.86
2018-12-10T12:26:49.491Z,98579.27
2018-12-10T12:29:22.002Z,98580.61
2018-12-10T12:31:53.866Z,98575.55
2018-12-10T12:34:25.148Z,98572.37
2018-12-10T12:36:56.202Z,98577.30
2018-12-10T12:39:27.108Z,98576.44
2018-12-10T12:41:58.557Z,98576.52
2018-12-10T12:44:29.451Z,98572.33
2018-12-10T12:47:00.739Z,98578.32
2018-12-10T12:49:32.613Z,98575.04
2018-12-10T12:52:04.405Z,98574.94
2018-12-10T12:54:35.658Z,98575.91
2018-12-10T12:57:07.471Z,98567.80
2018-12-10T12:59:38.541Z,98567.65
2018-12-10T13:02:11.576Z,98567.81
2018-12-10T13:04:43.096Z,98572.38
2018-12-10T13:07:17.253Z,98569.97
2018-12-10T13:09:50.077Z,98573.50
2018-12-10T13:12:21.615Z,98578.38
2018-12-10T13:14:52.804Z,98573.44
2018-12-10T13:17:23.903Z,98574.94
2018-12-10T13:19:55.287Z,98569.22
2018-12-10T13:22:28.234Z,98576.86
2018-12-10T13:25:01.112Z,98568.30
2018-12-10T13:27:32.838Z,98568.28
2018-12-10T13:30:05.551Z,98571.48
2018-12-10T13:32:40.121Z,98573.20
2018-12-10T13:35:11.252Z,98570.13
2018-12-10T13:37:45.921Z,98573.94
2018-12-10T13:40:17.708Z,98574.63
2018-12-10T13:42:49.578Z,98573.95
2018-12-10T13:45:23.371Z,98579.47
2018-12-10T13:47:55.938Z,98578.56
2018-12-10T13:50:28.231Z,98579.47
2018-12-10T13:53:00.873Z,98580.56
2018-12-10T13:55:32.078Z,98579.32
2018-12-10T13:58:03.795Z,98588.97
2018-12-10T14:00:36.465Z,98588.79
2018-12-10T14:03:08.537Z,98585.80
2018-12-10T14:05:40.349Z,98590.17
2018-12-10T14:08:12.481Z,98587.26
2018-12-10T14:10:43.526Z,98586.28
2018-12-10T14:13:15.755Z,98588.37
2018-12-10T14:15:46.942Z,98587.82
2018-12-10T14:18:17.824Z,98590.38
2018-12-10T14:20:48.780Z,98592.69
2018-12-10T14:23:20.309Z,98590.80
2018-12-10T14:25:51.613Z,98596.78
2018-12-10T14:28:22.421Z,98596.54
2018-12-10T14:30:54.461Z,98594.52
2018-12-10T14:33:25.675Z,98594.64
2018-12-10T14:35:56.959Z,98589.52
2018-12-10T14:38:28.497Z,98605.89
2018-12-10T14:40:59.480Z,98597.48
2018-12-10T14:43:30.373Z,98597.47
2018-12-10T14:46:01.862Z,98600.11
2018-12-10T14:48:33.109Z,98606.39
2018-12-10T14:51:04.383Z,98604.66
2018-12-10T14:53:35.819Z,98609.33
2018-12-10T14:56:07.438Z,98609.45
2018-12-10T14:58:39.340Z,98610.46
2018-12-10T15:01:11.016Z,98624.62
2018-12-10T15:03:44.482Z,98630.84
2018-12-10T15:06:17.723Z,98625.73
2018-12-10T15:08:49.714Z,98634.89
2018-12-10T15:11:21.233Z,98631.86
2018-12-10T15:13:52.243Z,98645.30
2018-12-10T15:16:24.647Z,98646.79
2018-12-10T15:18:56.945Z,98651.61
2018-12-10T15:21:28.348Z,98651.68
2018-12-10T15:23:59.800Z,98647.05
2018-12-10T15:26:32.794Z,98645.58
2018-12-10T15:29:04.419Z,98647.08
2018-12-10T15:31:36.322Z,98647.20
2018-12-10T15:34:07.316Z,98649.66
2018-12-10T15:36:38.491Z,98647.80
2018-12-10T15:39:09.467Z,98650.16
2018-12-10T15:41:40.692Z,98651.83
2018-12-10T15:44:12.025Z,98657.98
2018-12-10T15:46:43.276Z,98661.06
2018-12-10T15:49:14.541Z,98665.44
2018-12-10T15:51:45.651Z,98666.86
2018-12-10T15:54:17.934Z,98670.70
2018-12-10T15:56:49.327Z,98676.83
2018-12-10T15:59:20.527Z,98679.81
2018-12-10T16:01:52.534Z,98686.66
2018-12-10T16:04:25.305Z,98683.53
2018-12-10T16:06:56.488Z,98683.16
2018-12-10T16:09:29.924Z,98679.73
2018-12-10T16:12:01.174Z,98674.98
2018-12-10T16:14:33.055Z,98687.53
2018-12-10T16:17:07.323Z,98689.16
2018-12-10T16:19:39.300Z,98692.28
2018-12-10T16:22:12.461Z,98702.89
2018-12-10T16:24:43.326Z,98703.66
2018-12-10T16:27:15.479Z,98702.61
2018-12-10T16:29:47.589Z,98693.91
2018-12-10T16:32:20.675Z,98686.62
2018-12-10T16:34:53.134Z,98686.19
2018-12-10T16:37:24.542Z,98690.28
2018-12-10T16:39:56.689Z,98690.14
2018-12-10T16:42:29.461Z,98697.77
2018-12-10T16:45:00.808Z,98703.82
2018-12-10T16:47:37.588Z,98710.98
2018-12-10T16:50:10.452Z,98720.37
2018-12-10T16:52:41.307Z,98720.83
2018-12-10T16:55:12.336Z,98715.52
2018-12-10T16:57:43.088Z,98717.66
2018-12-10T17:00:16.628Z,98713.18
2018-12-10T17:02:49.298Z,98709.09
2018-12-10T17:05:26.003Z,98709.45
2018-12-10T17:07:57.942Z,98703.28
2018-12-10T17:10:30.959Z,98706.23
2018-12-10T17:13:02.672Z,98709.39
2018-12-10T17:15:33.997Z,98708.60
2018-12-10T17:18:09.051Z,98705.61
2018-12-10T17:20:40.520Z,98713.09
2018-12-10T17:23:12.459Z,98710.20
2018-12-10T17:25:46.460Z,98712.61
2018-12-10T17:28:17.620Z,98707.37
2018-12-10T17:30:49.766Z,98707.61
2018-12-10T17:33:21.555Z,98708.09
2018-12-10T17:35:53.674Z,98709.45
2018-12-10T17:38:25.576Z,98713.83
2018-12-10T17:40:56.653Z,98719.17
2018-12-10T17:43:28.834Z,98713.56
2018-12-10T17:46:00.288Z,98719.53
2018-12-10T17:48:32.742Z,98716.16
2018-12-10T17:51:04.193Z,98719.08
2018-12-10T17:53:35.334Z,98718.27
2018-12-10T17:56:06.761Z,98717.99
2018-12-10T17:58:38.468Z,98719.50
2018-12-10T18:01:10.142Z,98725.47
2018-12-10T18:03:47.325Z,98727.29
2018-12-10T18:06:19.271Z,98725.63
2018-12-10T18:08:55.297Z,98732.37
2018-12-10T18:11:26.569Z,98740.91
2018-12-10T18:13:57.688Z,98740.77
2018-12-10T18:16:28.562Z,98746.31
2018-12-10T18:18:59.735Z,98759.27
2018-12-10T18:21:33.232Z,98763.17
2018-12-10T18:24:07.211Z,98751.46
2018-12-10T18:26:38.630Z,98748.34
2018-12-10T18:29:10.000Z,98749.05
2018-12-10T18:31:41.507Z,98756.67
2018-12-10T18:34:12.689Z,98757.64
2018-12-10T18:36:43.976Z,98763.00
2018-12-10T18:39:16.736Z,98766.30
2018-12-10T18:41:48.146Z,98758.63
2018-12-10T18:44:19.600Z,98763.67
2018-12-10T18:46:50.678Z,98764.59
2018-12-10T18:49:21.759Z,98762.64
2018-12-10T18:51:53.466Z,98768.44
2018-12-10T18:54:24.413Z,98770.23
2018-12-10T18:56:55.847Z,98766.75
2018-12-10T18:59:27.031Z,98775.16
2018-12-10T19:01:59.145Z,98773.55
2018-12-10T19:04:30.122Z,98778.91
2018-12-10T19:07:01.118Z,98783.50
2018-12-10T19:09:32.263Z,98788.99
2018-12-10T19:12:03.071Z,98791.02
2018-12-10T19:14:34.181Z,98787.97
2018-12-10T19:17:05.537Z,98800.34
2018-12-10T19:19:37.428Z,98798.52
2018-12-10T19:22:08.911Z,98801.33
2018-12-10T19:24:40.323Z,98805.65
2018-12-10T19:27:11.256Z,98802.66
2018-12-10T19:29:44.057Z,98806.61
2018-12-10T19:32:16.255Z,98815.69
2018-12-10T19:34:49.739Z,98814.39
2018-12-10T19:37:21.554Z,98815.33
2018-12-10T19:39:53.885Z,98811.07
2018-12-10T19:42:24.987Z,98814.98
2018-12-10T19:44:55.969Z,98812.40
2018-12-10T19:47:27.629Z,98814.19
2018-12-10T19:49:59.614Z,98805.66
2018-12-10T19:52:32.122Z,98812.55
2018-12-10T19:55:03.389Z,98813.94
2018-12-10T19:57:34.542Z,98809.87
2018-12-10T20:00:07.140Z,98820.05
2018-12-10T20:02:38.665Z,98828.17
2018-12-10T20:05:10.159Z,98828.98
2018-12-10T20:07:43.435Z,98837.56
2018-12-10T20:10:15.271Z,98833.78
2018-12-10T20:12:48.442Z,98846.30
2018-12-10T20:15:19.715Z,98836.06
2018-12-10T20:17:50.866Z,98838.90
2018-12-10T20:20:23.686Z,98837.86
2018-12-10T20:22:55.016Z,98838.92
2018-12-10T20:25:26.059Z,98840.22
2018-12-10T20:27:57.699Z,98840.72
2018-12-10T20:30:28.899Z,98844.08
2018-12-10T20:33:00.328Z,98840.75
2018-12-10T20:35:32.064Z,98836.73
2018-12-10T20:38:03.281Z,98839.84
2018-12-10T20:40:34.799Z,98839.69
2018-12-10T20:43:06.759Z,98844.84
2018-12-10T20:45:38.330Z,98839.34
2018-12-10T20:48:09.532Z,98835.19
2018-12-10T20:50:40.694Z,98835.19
2018-12-10T20:53:12.155Z,98830.95
2018-12-10T20:55:43.088Z,98831.32
2018-12-10T20:58:14.160Z,98830.41
2018-12-10T21:00:45.036Z,98837.64
2018-12-10T21:03:16.174Z,98833.17
2018-12-10T21:05:52.176Z,98824.66
2018-12-10T21:08:22.977Z,98830.84
2018-12-10T21:10:54.326Z,98834.70
2018-12-10T21:13:25.547Z,98825.80
2018-12-10T21:15:56.762Z,98833.63
2018-12-10T21:18:27.607Z,98839.80
2018-12-10T21:20:58.638Z,98841.89
2018-12-10T21:23:29.728Z,98841.59
2018-12-10T21:26:00.839Z,98842.39
2018-12-10T21:28:32.418Z,98846.32
2018-12-10T21:31:03.690Z,98845.14
2018-12-10T21:33:34.745Z,98847.36
2018-12-10T21:36:05.870Z,98844.73
2018-12-10T21:38:36.711Z,98842.99
2018-12-10T21:41:07.729Z,98845.78
2018-12-10T21:43:38.579Z,98849.09
2018-12-10T21:46:09.730Z,98846.03
2018-12-10T21:48:41.599Z,98845.62
2018-12-10T21:51:12.639Z,98849.58
2018-12-10T21:53:46.046Z,98844.17
2018-12-10T21:56:17.503Z,98842.16
2018-12-10T21:58:48.882Z,98848.97
2018-12-10T22:01:19.987Z,98854.42
2018-12-10T22:03:51.024Z,98857.35
2018-12-10T22:06:21.963Z,98856.38
2018-12-10T22:08:52.804Z,98853.47
2018-12-10T22:11:23.756Z,98851.65
2018-12-10T22:13:54.854Z,98850.16
2018-12-10T22:16:25.724Z,98847.96
2018-12-10T22:18:56.593Z,98843.08
2018-12-10T22:21:27.593Z,98846.80
2018-12-10T22:23:58.659Z,98845.33
2018-12-10T22:26:29.382Z,98846.80
2018-12-10T22:29:00.189Z,98844.51
2018-12-10T22:31:31.078Z,98840.34
2018-12-10T22:34:02.080Z,98840.02
2018-12-10T22:36:32.790Z,98841.81
2018-12-10T22:39:04.358Z,98840.89
2018-12-10T22:41:35.218Z,98838.76
2018-12-10T22:44:06.065Z,98836.24
2018-12-10T22:46:36.742Z,98842.30
2018-12-10T22:49:07.548Z,98837.63
2018-12-10T22:51:38.200Z,98840.53
2018-12-10T22:54:09.452Z,98839.30
2018-12-10T22:56:40.196Z,98841.21
2018-12-10T22:59:11.080Z,98829.84
2018-12-10T23:01:41.882Z,98831.27
2018-12-10T23:04:12.750Z,98828.08
2018-12-10T23:06:43.599Z,98828.92
2018-12-10T23:09:14.263Z,98821.78
2018-12-10T23:11:45.324Z,98822.63
2018-12-10T23:14:16.210Z,98822.31
2018-12-10T23:16:47.101Z,98823.23
2018-12-10T23:19:17.871Z,98825.97
2018-12-10T23:21:48.731Z,98826.04
2018-12-10T23:24:19.626Z,98823.75
2018-12-10T23:26:50.493Z,98819.65
2018-12-10T23:29:21.603Z,98826.17
2018-12-10T23:31:52.590Z,98834.47
2018-12-10T23:34:23.477Z,98831.03
2018-12-10T23:36:54.284Z,98830.12
2018-12-10T23:39:25.251Z,98832.46
2018-12-10T23:41:55.866Z,98833.85
2018-12-10T23:44:31.857Z,98835.20
2018-12-10T23:47:03.266Z,98831.89
2018-12-10T23:49:34.056Z,98833.70
2018-12-10T23:52:04.977Z,98834.47
2018-12-10T23:54:35.768Z,98840.70
2018-12-10T23:57:06.552Z,98846.24
2018-12-10T23:59:37.263Z,98844.52
